createdAt,value
2022-11-22T00:02:44.802Z,25.50
2022-11-22T00:08:58.610Z,25.30
2022-11-22T00:15:14.267Z,25.00
2022-11-22T00:21:26.410Z,24.80
2022-11-22T00:27:42.418Z,25.00
2022-11-22T00:33:56.897Z,25.30
2022-11-22T00:40:15.569Z,25.40
2022-11-22T00:46:33.820Z,25.30
2022-11-22T00:52:53.530Z,25.00
2022-11-22T00:59:11.605Z,24.70
2022-11-22T01:05:29.960Z,24.60
2022-11-22T01:11:47.263Z,24.50
2022-11-22T01:18:06.814Z,24.40
2022-11-22T01:24:26.882Z,24.20
2022-11-22T01:30:45.111Z,24.10
2022-11-22T01:36:58.588Z,24.10
2022-11-22T01:43:10.961Z,24.10
2022-11-22T01:49:29.074Z,24.00
2022-11-22T01:55:48.103Z,23.90
2022-11-22T02:02:07.120Z,23.80
2022-11-22T02:08:17.648Z,23.80
2022-11-22T02:14:36.528Z,23.80
2022-11-22T02:20:54.368Z,23.70
2022-11-22T02:27:07.411Z,23.70
2022-11-22T02:39:42.954Z,23.60
2022-11-22T02:46:01.435Z,23.50
2022-11-22T02:52:12.878Z,23.60
2022-11-22T02:58:27.179Z,23.60
2022-11-22T03:04:42.306Z,23.60
2022-11-22T03:11:02.173Z,23.50
2022-11-22T03:17:19.488Z,23.50
2022-11-22T03:23:35.380Z,23.40
2022-11-22T03:29:48.156Z,23.30
2022-11-22T03:36:04.370Z,23.30
2022-11-22T03:42:22.124Z,23.30
2022-11-22T03:48:40.736Z,23.30
2022-11-22T03:54:52.947Z,23.10
2022-11-22T04:01:16.128Z,23.10
2022-11-22T04:07:29.212Z,23.20
2022-11-22T04:14:16.687Z,23.10
2022-11-22T04:20:45.381Z,23.00
2022-11-22T04:26:59.145Z,23.00
2022-11-22T04:33:16.779Z,23.00
2022-11-22T04:39:33.523Z,23.10
2022-11-22T04:45:49.494Z,23.00
2022-11-22T04:52:20.420Z,22.90
2022-11-22T04:58:37.389Z,22.90
2022-11-22T05:04:51.152Z,23.00
2022-11-22T05:11:09.476Z,23.00
2022-11-22T05:17:24.964Z,22.90
2022-11-22T05:24:09.266Z,22.80
2022-11-22T05:30:23.965Z,22.70
2022-11-22T05:36:39.729Z,22.90
2022-11-22T05:42:54.405Z,22.90
2022-11-22T05:49:08.797Z,22.70
2022-11-22T05:55:28.886Z,22.60
2022-11-22T06:01:43.513Z,22.60
2022-11-22T06:08:03.537Z,22.70
2022-11-22T06:14:19.559Z,22.70
2022-11-22T06:20:32.904Z,22.50
2022-11-22T06:26:49.791Z,22.40
2022-11-22T06:32:57.858Z,22.40
2022-11-22T06:39:11.356Z,22.60
2022-11-22T06:45:24.844Z,22.50
2022-11-22T06:51:41.566Z,22.30
2022-11-22T06:57:58.626Z,22.30
2022-11-22T07:04:08.675Z,22.30
2022-11-22T07:10:22.727Z,22.40
2022-11-22T07:16:32.481Z,22.30
2022-11-22T07:22:42.711Z,22.20
2022-11-22T07:28:56.349Z,22.20
2022-11-22T07:35:10.776Z,22.20
2022-11-22T07:41:19.765Z,22.30
2022-11-22T07:47:34.487Z,22.10
2022-11-22T07:53:49.351Z,22.00
2022-11-22T08:00:05.603Z,22.00
2022-11-22T08:06:19.874Z,22.10
2022-11-22T08:12:35.648Z,22.10
2022-11-22T08:18:46.975Z,22.00
2022-11-22T08:24:58.171Z,21.90
2022-11-22T08:31:18.177Z,21.80
2022-11-22T08:37:31.800Z,21.90
2022-11-22T08:43:47.535Z,21.80
2022-11-22T08:50:01.175Z,21.70
2022-11-22T08:56:15.484Z,21.70
2022-11-22T09:02:30.065Z,21.70
2022-11-22T09:08:43.811Z,21.70
2022-11-22T09:14:54.693Z,21.70
2022-11-22T09:21:14.731Z,21.60
2022-11-22T09:27:30.134Z,21.60
2022-11-22T09:33:41.570Z,21.70
2022-11-22T09:39:55.164Z,22.00
2022-11-22T09:46:18.910Z,22.00
2022-11-22T09:52:39.934Z,21.80
2022-11-22T09:58:56.113Z,21.70
2022-11-22T10:05:14.002Z,21.70
2022-11-22T10:11:37.755Z,21.80
2022-11-22T10:17:59.611Z,21.70
2022-11-22T10:24:17.907Z,21.90
2022-11-22T10:30:32.266Z,22.00
2022-11-22T10:36:53.640Z,21.80
2022-11-22T10:43:19.347Z,21.70
2022-11-22T10:49:35.689Z,21.70
2022-11-22T10:55:51.873Z,21.90
2022-11-22T11:02:10.934Z,22.10
2022-11-22T11:08:47.679Z,21.90
2022-11-22T11:14:39.977Z,21.70
2022-11-22T11:20:56.350Z,21.60
2022-11-22T11:27:12.231Z,21.70
2022-11-22T11:33:41.440Z,21.90
2022-11-22T11:39:56.059Z,22.10
2022-11-22T11:46:20.193Z,21.90
2022-11-22T11:52:32.639Z,21.70
2022-11-22T11:58:47.585Z,21.60
2022-11-22T12:05:02.775Z,21.90
2022-11-22T12:11:17.173Z,22.20
2022-11-22T12:17:34.100Z,22.40
2022-11-22T12:23:51.053Z,22.70
2022-11-22T12:30:07.268Z,23.00
2022-11-22T12:36:20.309Z,23.20
2022-11-22T12:42:32.899Z,23.50
2022-11-22T12:48:49.179Z,23.70
2022-11-22T12:55:08.512Z,23.80
2022-11-22T13:01:23.119Z,24.10
2022-11-22T13:07:46.593Z,24.00
2022-11-22T13:14:02.907Z,23.80
2022-11-22T13:20:20.309Z,24.00
2022-11-22T13:26:34.371Z,24.50
2022-11-22T13:32:50.064Z,24.50
2022-11-22T13:39:04.124Z,24.20
2022-11-22T13:45:38.402Z,23.90
2022-11-22T13:52:04.184Z,23.80
2022-11-22T13:59:03.163Z,24.20
2022-11-22T14:05:28.123Z,24.50
2022-11-22T14:11:45.858Z,24.30
2022-11-22T14:18:03.755Z,24.00
2022-11-22T14:24:19.099Z,24.20
2022-11-22T14:30:45.560Z,24.40
2022-11-22T14:37:32.770Z,24.30
2022-11-22T14:43:46.152Z,24.00
2022-11-22T14:49:58.091Z,24.10
2022-11-22T14:56:33.771Z,24.40
2022-11-22T15:03:24.967Z,24.60
2022-11-22T15:10:22.341Z,24.40
2022-11-22T16:00:50.729Z,24.10
2022-11-22T16:07:04.766Z,24.30
2022-11-22T16:13:32.333Z,24.60
2022-11-22T16:19:55.619Z,24.70
2022-11-22T16:26:25.629Z,24.60
2022-11-22T16:32:46.022Z,24.30
2022-11-22T16:39:03.049Z,24.10
2022-11-22T16:45:34.182Z,24.30
2022-11-22T16:51:50.405Z,24.50
2022-11-22T16:58:12.425Z,24.50
2022-11-22T17:04:39.506Z,24.20
2022-11-22T17:10:50.864Z,24.10
2022-11-22T17:17:11.295Z,24.00
2022-11-22T17:23:29.502Z,24.40
2022-11-22T17:29:50.289Z,24.50
2022-11-22T17:35:58.914Z,24.30
2022-11-22T17:42:18.096Z,24.10
2022-11-22T17:48:34.391Z,24.10
2022-11-22T17:54:50.730Z,24.00
2022-11-22T18:01:09.377Z,24.30
2022-11-22T18:07:24.129Z,24.60
2022-11-22T18:13:41.124Z,24.50
2022-11-22T18:19:56.879Z,24.40
2022-11-22T18:26:38.443Z,24.30
2022-11-22T18:32:31.599Z,24.10
2022-11-22T18:38:54.623Z,24.00
2022-11-22T18:45:09.396Z,24.20
2022-11-22T18:51:28.080Z,24.60
2022-11-22T18:57:45.469Z,24.60
2022-11-22T19:03:59.868Z,24.50
2022-11-22T19:10:20.775Z,24.40
2022-11-22T19:16:31.314Z,24.30
2022-11-22T19:22:52.213Z,24.30
2022-11-22T19:29:08.324Z,24.30
2022-11-22T19:35:23.955Z,24.30
2022-11-22T19:41:41.729Z,24.50
2022-11-22T19:47:55.719Z,24.70
2022-11-22T19:54:12.052Z,24.60
2022-11-22T20:00:31.863Z,24.50
2022-11-22T20:06:50.115Z,24.40
2022-11-22T20:13:06.661Z,24.20
2022-11-22T20:19:28.608Z,24.20
2022-11-22T20:25:46.282Z,24.50
2022-11-22T20:32:01.252Z,24.60
2022-11-22T20:38:21.359Z,24.40
2022-11-22T20:44:37.635Z,24.30
2022-11-22T20:50:59.402Z,24.10
2022-11-22T20:57:18.545Z,24.00
2022-11-22T21:03:37.140Z,23.80
2022-11-22T21:09:50.986Z,23.80
2022-11-22T21:16:29.565Z,24.20
2022-11-22T21:22:37.325Z,24.30
2022-11-22T21:28:52.155Z,24.20
2022-11-22T21:35:07.135Z,24.00
2022-11-22T21:41:41.696Z,23.80
2022-11-22T21:47:52.453Z,24.00
2022-11-22T21:54:27.870Z,24.30
2022-11-22T22:00:44.471Z,24.20
2022-11-22T22:06:57.889Z,24.00
2022-11-22T22:13:11.541Z,23.90
2022-11-22T22:19:27.469Z,23.90
2022-11-22T22:25:44.352Z,24.10
2022-11-22T22:31:59.403Z,24.40
2022-11-22T22:38:15.273Z,24.30
2022-11-22T22:44:31.462Z,24.10
2022-11-22T22:50:41.769Z,24.00
2022-11-22T22:56:57.737Z,24.20
2022-11-22T23:03:11.393Z,24.50
2022-11-22T23:09:25.761Z,24.60
2022-11-22T23:15:57.499Z,24.40
2022-11-22T23:21:54.845Z,24.10
2022-11-22T23:28:08.479Z,24.00
2022-11-22T23:34:27.362Z,24.10
2022-11-22T23:40:46.650Z,24.10
2022-11-22T23:46:57.796Z,24.10
2022-11-22T23:53:22.325Z,24.20
2022-11-22T23:59:34.387Z,24.40
